Time;durP1;ratioP1;P1;durP2;ratioP2;P2;SDS_P1;SDS_P2;PMS_P1;PMS_P2;Temp;Humidity;BMP_temperature;BMP_pressure;BME280_temperature;BME280_humidity;BME280_pressure;Samples;Min_cycle;Max_cycle;Signal;HPM_P1;HPM_P2
2022/09/15 00:01:40;;;;;;;2.72;2.50;;;19.10;99.90;;;;;;5064593;28;20176;-87
2022/09/15 00:04:07;;;;;;;2.60;2.40;;;19.00;99.90;;;;;;5065474;28;20218;-86
2022/09/15 00:06:34;;;;;;;3.47;2.75;;;19.10;99.90;;;;;;5064726;28;20196;-87
2022/09/15 00:09:01;;;;;;;4.35;2.70;;;19.10;99.90;;;;;;5065418;28;20166;-87
2022/09/15 00:11:31;;;;;;;3.28;2.53;;;19.10;99.90;;;;;;5068570;28;20184;-87
2022/09/15 00:13:59;;;;;;;4.40;2.90;;;19.10;99.90;;;;;;5049875;28;20180;-87
2022/09/15 00:16:27;;;;;;;3.00;2.80;;;19.00;99.90;;;;;;5078787;28;20231;-87
2022/09/15 00:18:53;;;;;;;3.20;2.80;;;18.90;99.90;;;;;;5084308;28;20184;-87
2022/09/15 00:21:22;;;;;;;2.50;2.33;;;18.90;99.90;;;;;;5068132;28;20176;-87
2022/09/15 00:23:49;;;;;;;2.90;2.70;;;18.80;99.90;;;;;;5068455;28;20208;-87
2022/09/15 00:26:17;;;;;;;2.85;2.65;;;18.90;99.90;;;;;;5067323;28;20212;-88
2022/09/15 00:28:44;;;;;;;7.97;2.90;;;18.80;99.90;;;;;;5067963;28;20192;-87
2022/09/15 00:31:12;;;;;;;3.58;2.75;;;18.80;99.90;;;;;;5067916;28;20244;-87
2022/09/15 00:33:39;;;;;;;2.90;2.63;;;18.80;99.90;;;;;;5083547;28;20189;-87
2022/09/15 00:36:07;;;;;;;3.47;2.70;;;18.80;99.90;;;;;;5087104;28;20203;-86
2022/09/15 00:38:34;;;;;;;4.35;2.85;;;18.80;99.90;;;;;;5086890;28;20183;-87
2022/09/15 00:41:00;;;;;;;4.03;2.58;;;18.80;99.90;;;;;;5086371;28;20203;-86
2022/09/15 00:44:00;;;;;;;2.90;2.70;;;18.80;99.90;;;;;;5086057;28;20191;-87
2022/09/15 00:46:28;;;;;;;2.95;2.70;;;18.80;99.90;;;;;;5067464;28;20208;-87
2022/09/15 00:49:19;;;;;;;3.40;2.75;;;18.70;99.90;;;;;;5072492;28;20255;-87
2022/09/15 00:51:53;;;;;;;3.28;2.78;;;18.70;99.90;;;;;;5062278;28;20191;-87
2022/09/15 00:54:53;;;;;;;4.35;2.80;;;18.70;99.90;;;;;;5066957;28;20172;-87
2022/09/15 00:57:34;;;;;;;4.03;2.70;;;18.60;99.90;;;;;;5067000;28;20215;-87
2022/09/15 01:00:03;;;;;;;2.80;2.60;;;18.60;99.90;;;;;;5075107;28;20175;-88
2022/09/15 01:02:32;;;;;;;3.45;3.15;;;18.60;99.90;;;;;;5086796;28;20184;-87
2022/09/15 01:05:00;;;;;;;3.00;2.70;;;18.60;99.90;;;;;;5085736;28;20202;-87
2022/09/15 01:07:44;;;;;;;3.05;2.75;;;18.60;99.90;;;;;;5090451;28;20214;-87
2022/09/15 01:10:31;;;;;;;3.53;2.65;;;18.50;99.90;;;;;;5086865;28;20266;-86
2022/09/15 01:13:00;;;;;;;6.10;2.58;;;18.60;99.90;;;;;;5081985;28;20176;-87
2022/09/15 01:15:57;;;;;;;3.03;2.63;;;18.60;99.90;;;;;;5074154;28;20202;-87
2022/09/15 01:18:26;;;;;;;2.50;2.30;;;18.60;99.90;;;;;;5087198;28;20196;-88
2022/09/15 01:21:11;;;;;;;3.75;2.88;;;18.60;99.90;;;;;;5087464;28;20215;-87
2022/09/15 01:23:36;;;;;;;3.05;2.80;;;18.60;99.90;;;;;;5085900;28;20223;-87
2022/09/15 01:26:02;;;;;;;3.30;3.00;;;18.60;99.90;;;;;;5086757;28;20242;-87
2022/09/15 01:28:29;;;;;;;3.22;2.92;;;18.60;99.90;;;;;;5067513;28;20196;-87
2022/09/15 01:31:20;;;;;;;4.15;2.63;;;18.60;99.90;;;;;;5085073;28;20241;-87
2022/09/15 01:33:49;;;;;;;4.13;2.42;;;18.60;99.90;;;;;;5095016;28;20174;-86
2022/09/15 01:36:43;;;;;;;4.85;3.17;;;18.50;99.90;;;;;;5096875;28;20265;-86
2022/09/15 01:39:23;;;;;;;3.67;3.10;;;18.50;99.90;;;;;;5094687;28;20175;-87
2022/09/15 01:41:51;;;;;;;3.13;2.78;;;18.50;99.90;;;;;;5085793;28;20210;-87
2022/09/15 01:44:36;;;;;;;3.50;3.20;;;18.60;99.90;;;;;;5082769;28;20567;-87
2022/09/15 01:47:06;;;;;;;3.65;3.05;;;18.60;99.90;;;;;;5065619;28;20455;-87
2022/09/15 01:50:10;;;;;;;3.45;3.15;;;18.60;99.90;;;;;;5065145;28;20222;-86
2022/09/15 01:52:39;;;;;;;3.03;2.80;;;18.70;99.90;;;;;;5066407;28;20157;-87
2022/09/15 01:55:15;;;;;;;3.10;2.90;;;18.80;99.90;;;;;;5082715;28;20255;-87
2022/09/15 01:57:41;;;;;;;4.13;3.20;;;18.80;99.90;;;;;;5086639;28;20211;-87
2022/09/15 02:00:08;;;;;;;5.55;3.22;;;18.80;99.90;;;;;;5086519;28;20193;-87
2022/09/15 02:02:41;;;;;;;3.20;2.90;;;18.80;99.90;;;;;;5085202;28;20666;-87
2022/09/15 02:05:29;;;;;;;3.10;2.80;;;18.80;99.90;;;;;;5084634;28;20210;-87
2022/09/15 02:08:04;;;;;;;3.25;2.80;;;18.80;99.90;;;;;;5086239;28;20226;-88
2022/09/15 02:10:43;;;;;;;3.40;3.08;;;18.80;99.90;;;;;;5084066;28;20228;-88
2022/09/15 02:13:24;;;;;;;3.10;2.90;;;18.80;99.90;;;;;;5077295;28;20180;-88
2022/09/15 02:15:55;;;;;;;4.10;3.10;;;18.80;99.90;;;;;;5078111;28;20628;-87
2022/09/15 02:18:33;;;;;;;5.53;2.90;;;18.70;99.90;;;;;;5078263;28;20242;-88
2022/09/15 02:21:09;;;;;;;3.53;3.22;;;18.70;99.90;;;;;;5077697;28;20218;-88
2022/09/15 02:23:42;;;;;;;4.25;3.53;;;18.80;99.90;;;;;;5080326;28;20199;-87
2022/09/15 02:26:16;;;;;;;4.60;2.85;;;18.80;99.90;;;;;;5079866;28;20214;-87
2022/09/15 02:28:44;;;;;;;3.50;3.20;;;18.70;99.90;;;;;;5079834;28;20178;-87
2022/09/15 02:31:15;;;;;;;3.40;3.10;;;18.70;99.90;;;;;;5080572;28;20179;-87
2022/09/15 02:33:50;;;;;;;4.07;3.00;;;18.80;99.90;;;;;;5080358;28;20180;-87
2022/09/15 02:36:18;;;;;;;5.47;3.20;;;18.80;99.90;;;;;;5060249;28;20203;-87
2022/09/15 02:38:51;;;;;;;3.60;3.05;;;18.80;99.90;;;;;;5059226;28;20168;-87
2022/09/15 02:41:16;;;;;;;3.65;3.30;;;18.80;99.90;;;;;;5068070;28;20187;-87
2022/09/15 02:43:48;;;;;;;5.55;3.63;;;18.80;99.90;;;;;;5044665;28;20210;-87
2022/09/15 02:46:15;;;;;;;3.90;3.13;;;18.80;99.90;;;;;;5041303;28;20208;-87
2022/09/15 02:48:41;;;;;;;5.15;3.30;;;18.70;99.90;;;;;;5058053;28;20184;-88
2022/09/15 02:51:07;;;;;;;3.65;3.28;;;18.70;99.90;;;;;;5058645;28;20207;-88
2022/09/15 02:53:33;;;;;;;3.50;3.20;;;18.70;99.90;;;;;;5057813;28;20191;-88
2022/09/15 02:55:59;;;;;;;4.85;3.17;;;18.70;99.90;;;;;;5057486;28;20298;-88
2022/09/15 02:58:24;;;;;;;5.03;2.80;;;18.70;99.90;;;;;;5057644;28;20738;-87
2022/09/15 03:00:50;;;;;;;3.08;2.72;;;18.80;99.90;;;;;;5057159;28;20192;-87
2022/09/15 03:03:17;;;;;;;3.33;2.92;;;18.80;99.90;;;;;;5058890;28;20237;-87
2022/09/15 03:05:43;;;;;;;3.95;2.92;;;18.70;99.90;;;;;;5073523;28;20176;-87
2022/09/15 03:08:09;;;;;;;3.60;2.90;;;18.80;99.90;;;;;;5074347;28;20206;-87
2022/09/15 03:10:35;;;;;;;3.90;2.72;;;18.70;99.90;;;;;;5058475;28;20176;-87
2022/09/15 03:13:00;;;;;;;3.13;2.83;;;18.70;99.90;;;;;;5058239;28;20676;-87
2022/09/15 03:15:26;;;;;;;4.72;2.90;;;18.70;99.90;;;;;;5067522;28;20294;-87
2022/09/15 03:17:52;;;;;;;3.88;2.63;;;18.80;99.90;;;;;;5058084;28;20580;-87
2022/09/15 03:20:21;;;;;;;2.97;2.28;;;18.80;99.90;;;;;;5076698;28;20200;-87
2022/09/15 03:22:48;;;;;;;2.67;2.47;;;18.80;99.90;;;;;;5077011;28;20684;-87
2022/09/15 03:25:14;;;;;;;3.00;2.70;;;18.70;99.90;;;;;;5097813;28;20209;-87
2022/09/15 03:27:41;;;;;;;2.80;2.50;;;18.80;99.90;;;;;;5080332;28;20202;-87
2022/09/15 03:30:07;;;;;;;4.38;2.70;;;18.80;99.90;;;;;;5097284;28;21064;-87
2022/09/15 03:32:34;;;;;;;2.97;2.70;;;18.80;99.90;;;;;;5089699;28;20186;-87
2022/09/15 03:34:59;;;;;;;4.97;2.50;;;18.80;99.90;;;;;;5077793;28;20179;-87
2022/09/15 03:37:25;;;;;;;4.90;2.53;;;18.80;99.90;;;;;;5078513;28;20303;-88
2022/09/15 03:39:51;;;;;;;4.93;2.60;;;18.70;99.90;;;;;;5078114;28;20176;-87
2022/09/15 03:42:17;;;;;;;2.78;2.58;;;18.80;99.90;;;;;;5077973;28;20211;-88
2022/09/15 03:44:42;;;;;;;3.67;2.70;;;18.80;99.90;;;;;;5070742;28;20697;-87
2022/09/15 03:47:08;;;;;;;4.18;2.72;;;18.80;99.90;;;;;;5074955;28;20213;-87
2022/09/15 03:49:34;;;;;;;3.80;2.58;;;18.70;99.90;;;;;;5077521;28;20676;-86
2022/09/15 03:52:00;;;;;;;2.63;2.42;;;18.80;99.90;;;;;;5079754;28;20198;-87
2022/09/15 03:54:26;;;;;;;4.18;2.40;;;18.80;99.90;;;;;;5082231;28;20183;-89
2022/09/15 03:56:52;;;;;;;2.67;2.42;;;18.80;99.90;;;;;;5066334;28;20220;-87
2022/09/15 03:59:19;;;;;;;3.03;2.72;;;18.80;99.90;;;;;;5067784;28;20186;-88
2022/09/15 04:01:46;;;;;;;3.97;2.60;;;18.80;99.90;;;;;;5082716;28;20182;-86
2022/09/15 04:04:12;;;;;;;3.72;2.47;;;18.80;99.90;;;;;;5071975;28;20207;-87
2022/09/15 04:06:38;;;;;;;2.58;2.47;;;18.70;99.90;;;;;;5094094;28;20225;-87
2022/09/15 04:09:04;;;;;;;4.97;2.85;;;18.80;99.90;;;;;;5075540;28;20173;-88
2022/09/15 04:11:31;;;;;;;2.92;2.72;;;18.70;99.90;;;;;;5061314;28;20184;-88
2022/09/15 04:13:57;;;;;;;5.20;2.72;;;18.70;99.90;;;;;;5061237;28;20259;-88
2022/09/15 04:16:24;;;;;;;4.22;2.97;;;18.70;99.90;;;;;;5061831;28;20195;-88
2022/09/15 04:18:51;;;;;;;2.60;2.40;;;18.70;99.90;;;;;;5074446;28;20195;-89
2022/09/15 04:21:20;;;;;;;3.15;2.85;;;18.70;99.90;;;;;;5074954;28;20545;-88
2022/09/15 04:23:47;;;;;;;3.78;2.80;;;18.70;99.90;;;;;;5065843;28;20207;-88
2022/09/15 04:26:30;;;;;;;3.50;3.15;;;18.60;99.90;;;;;;5060712;28;20204;-87
2022/09/15 04:28:56;;;;;;;2.65;2.45;;;18.60;99.90;;;;;;5060044;28;20180;-87
2022/09/15 04:31:22;;;;;;;3.08;2.78;;;18.60;99.90;;;;;;5061540;28;20667;-86
2022/09/15 04:33:52;;;;;;;4.90;3.03;;;18.60;99.90;;;;;;5071324;28;20187;-86
2022/09/15 04:36:24;;;;;;;4.07;2.97;;;18.50;99.90;;;;;;5080448;28;20218;-86
2022/09/15 04:38:50;;;;;;;6.85;3.28;;;18.50;99.90;;;;;;5082465;28;20191;-86
2022/09/15 04:41:18;;;;;;;2.65;2.45;;;18.40;99.90;;;;;;5082032;28;20222;-86
2022/09/15 04:43:44;;;;;;;3.95;2.80;;;18.50;99.90;;;;;;5082022;28;20195;-85
2022/09/15 04:46:11;;;;;;;3.60;2.78;;;18.50;99.90;;;;;;5073804;28;20241;-86
2022/09/15 04:48:37;;;;;;;3.20;2.90;;;18.50;99.90;;;;;;5075124;28;20215;-86
2022/09/15 04:51:05;;;;;;;3.63;3.00;;;18.50;99.90;;;;;;5075601;28;20177;-87
2022/09/15 04:53:31;;;;;;;4.78;2.80;;;18.50;99.90;;;;;;5077888;28;20180;-88
2022/09/15 04:56:06;;;;;;;4.93;2.85;;;18.40;99.90;;;;;;5075420;28;20210;-86
2022/09/15 04:58:38;;;;;;;4.57;3.30;;;18.40;99.90;;;;;;5098768;28;20240;-88
2022/09/15 05:01:09;;;;;;;3.78;3.20;;;18.40;99.90;;;;;;5096062;28;20151;-87
2022/09/15 05:03:37;;;;;;;3.20;2.90;;;18.40;99.90;;;;;;5091987;28;20213;-87
2022/09/15 05:06:05;;;;;;;3.70;3.40;;;18.40;99.90;;;;;;5089295;28;20207;-88
2022/09/15 05:08:30;;;;;;;3.47;3.17;;;18.40;99.90;;;;;;5097628;28;20231;-88
2022/09/15 05:11:05;;;;;;;4.28;3.47;;;18.40;99.90;;;;;;5066320;28;20184;-88
2022/09/15 05:13:32;;;;;;;3.80;3.50;;;18.40;99.90;;;;;;5075260;28;20171;-89
2022/09/15 05:16:06;;;;;;;3.95;3.42;;;18.40;99.90;;;;;;5084084;28;20219;-89
2022/09/15 05:18:32;;;;;;;4.05;3.65;;;18.40;99.90;;;;;;5089784;28;20185;-88
2022/09/15 05:21:02;;;;;;;3.90;3.58;;;18.40;99.90;;;;;;5068924;28;20203;-88
2022/09/15 05:23:28;;;;;;;3.85;3.50;;;18.30;99.90;;;;;;5082335;28;20182;-88
2022/09/15 05:25:59;;;;;;;4.57;3.38;;;18.40;99.90;;;;;;5087709;28;20678;-88
2022/09/15 05:28:25;;;;;;;7.68;3.55;;;18.30;99.90;;;;;;5077352;28;20187;-88
2022/09/15 05:30:52;;;;;;;4.25;3.90;;;18.30;99.90;;;;;;5083249;28;20596;-88
2022/09/15 05:33:19;;;;;;;5.50;3.50;;;18.20;99.90;;;;;;5079169;28;20415;-88
2022/09/15 05:35:53;;;;;;;3.58;3.38;;;18.20;99.90;;;;;;5078786;28;20574;-87
2022/09/15 05:38:19;;;;;;;3.95;3.60;;;18.20;99.90;;;;;;5074917;28;20240;-88
2022/09/15 05:40:45;;;;;;;4.95;4.00;;;18.10;99.90;;;;;;5082439;28;20571;-86
2022/09/15 05:43:11;;;;;;;4.10;3.47;;;18.10;99.90;;;;;;5074858;28;20183;-88
2022/09/15 05:45:37;;;;;;;3.50;3.22;;;18.20;99.90;;;;;;5076841;28;20264;-87
2022/09/15 05:48:03;;;;;;;3.50;3.13;;;18.20;99.90;;;;;;5069462;28;20195;-87
2022/09/15 05:50:32;;;;;;;3.85;3.55;;;18.20;99.90;;;;;;5072162;28;20255;-88
2022/09/15 05:52:58;;;;;;;4.07;3.50;;;18.20;99.90;;;;;;5075777;28;20434;-88
2022/09/15 05:55:23;;;;;;;3.92;3.63;;;18.20;99.90;;;;;;5049914;28;20193;-88
2022/09/15 05:57:49;;;;;;;3.70;3.40;;;18.20;99.90;;;;;;5062687;28;20230;-88
2022/09/15 06:00:15;;;;;;;3.72;3.33;;;18.20;99.90;;;;;;5075119;28;20191;-87
2022/09/15 06:02:41;;;;;;;3.83;3.40;;;18.20;99.90;;;;;;5064893;28;20178;-86
2022/09/15 06:05:07;;;;;;;5.70;4.00;;;18.10;99.90;;;;;;5075444;28;20230;-86
2022/09/15 06:07:33;;;;;;;4.05;3.47;;;18.10;99.90;;;;;;5081232;28;20224;-86
2022/09/15 06:09:58;;;;;;;4.13;3.72;;;18.20;99.90;;;;;;5072013;28;20185;-86
2022/09/15 06:12:26;;;;;;;6.82;4.38;;;18.20;99.90;;;;;;5074501;28;20186;-86
2022/09/15 06:14:52;;;;;;;5.63;3.63;;;18.30;99.90;;;;;;5086210;28;20557;-86
2022/09/15 06:17:17;;;;;;;4.03;3.63;;;18.30;99.90;;;;;;5067424;28;20598;-85
2022/09/15 06:19:44;;;;;;;3.67;3.40;;;18.40;99.90;;;;;;5070665;28;20187;-86
2022/09/15 06:22:10;;;;;;;3.88;3.47;;;18.30;99.90;;;;;;5069637;28;20192;-88
2022/09/15 06:24:36;;;;;;;3.13;2.92;;;18.30;99.90;;;;;;5068497;28;20576;-86
2022/09/15 06:27:01;;;;;;;5.97;3.40;;;18.10;99.90;;;;;;5070089;28;20216;-86
2022/09/15 06:29:27;;;;;;;3.40;3.08;;;18.20;99.90;;;;;;5070772;28;20186;-86
2022/09/15 06:31:53;;;;;;;3.22;2.90;;;18.10;99.90;;;;;;5066534;28;20194;-86
2022/09/15 06:34:19;;;;;;;3.38;3.10;;;18.10;99.90;;;;;;5074271;28;20552;-85
2022/09/15 06:36:45;;;;;;;3.42;3.20;;;18.20;99.90;;;;;;5068310;28;20226;-85
2022/09/15 06:39:11;;;;;;;3.95;3.38;;;18.20;99.90;;;;;;5070033;28;20293;-85
2022/09/15 06:41:36;;;;;;;5.10;2.70;;;18.10;99.90;;;;;;5069087;28;20209;-86
2022/09/15 06:44:02;;;;;;;2.85;2.47;;;18.10;99.90;;;;;;5062750;28;20206;-86
2022/09/15 06:46:28;;;;;;;2.92;2.33;;;18.00;99.90;;;;;;5070073;28;20257;-86
2022/09/15 06:48:54;;;;;;;2.50;2.30;;;18.00;99.90;;;;;;5072868;28;20562;-86
2022/09/15 06:51:27;;;;;;;2.40;2.20;;;17.90;99.90;;;;;;5078264;28;20260;-85
2022/09/15 06:53:53;;;;;;;2.90;2.58;;;18.00;99.90;;;;;;5074076;28;20207;-85
2022/09/15 06:56:21;;;;;;;2.60;2.40;;;18.00;99.90;;;;;;5063585;28;20289;-88
2022/09/15 06:58:49;;;;;;;2.70;2.50;;;18.00;99.90;;;;;;5066806;28;20668;-86
2022/09/15 07:01:24;;;;;;;3.95;2.63;;;18.00;99.90;;;;;;5069352;28;20325;-85
2022/09/15 07:03:50;;;;;;;2.50;2.38;;;18.00;99.90;;;;;;5064360;28;20806;-86
2022/09/15 07:06:17;;;;;;;3.28;2.45;;;18.10;99.90;;;;;;5065825;28;20203;-85
2022/09/15 07:08:44;;;;;;;3.17;2.70;;;18.10;99.90;;;;;;5071175;28;20193;-86
2022/09/15 07:11:10;;;;;;;2.63;2.40;;;18.10;99.90;;;;;;5070318;28;20712;-86
2022/09/15 07:13:36;;;;;;;2.60;2.40;;;18.10;99.90;;;;;;5069656;28;20191;-86
2022/09/15 07:16:05;;;;;;;3.10;2.58;;;18.10;99.90;;;;;;5067027;28;20260;-85
2022/09/15 07:18:31;;;;;;;2.58;2.38;;;18.10;99.90;;;;;;5069893;28;20176;-85
2022/09/15 07:21:04;;;;;;;3.40;2.38;;;18.20;99.90;;;;;;5071370;28;20577;-85
2022/09/15 07:23:31;;;;;;;3.75;2.63;;;18.10;99.90;;;;;;5074524;28;20237;-86
2022/09/15 07:26:11;;;;;;;3.40;2.58;;;18.20;99.90;;;;;;5061044;28;20238;-86
2022/09/15 07:28:38;;;;;;;3.33;2.60;;;18.10;99.90;;;;;;5065615;28;20274;-86
2022/09/15 07:31:05;;;;;;;2.85;2.42;;;18.10;99.90;;;;;;5073354;28;20185;-86
2022/09/15 07:33:32;;;;;;;3.67;3.38;;;18.30;99.90;;;;;;5070142;28;20187;-87
2022/09/15 07:36:04;;;;;;;4.95;3.92;;;18.00;99.90;;;;;;5069434;28;20358;-86
2022/09/15 07:38:29;;;;;;;4.72;4.32;;;17.70;99.90;;;;;;5048479;28;20198;-86
2022/09/15 07:41:05;;;;;;;4.82;4.43;;;17.50;99.90;;;;;;5070316;28;20198;-86
2022/09/15 07:43:31;;;;;;;5.07;4.57;;;17.50;99.90;;;;;;5065539;28;20195;-86
2022/09/15 07:45:59;;;;;;;5.28;4.78;;;17.50;99.90;;;;;;5066541;28;20218;-86
2022/09/15 07:48:24;;;;;;;5.97;5.38;;;17.50;99.90;;;;;;5072101;28;20205;-85
2022/09/15 07:50:50;;;;;;;6.88;5.72;;;17.20;99.90;;;;;;5063961;28;20208;-86
2022/09/15 07:53:16;;;;;;;7.55;6.82;;;17.10;99.90;;;;;;5073185;28;20191;-86
2022/09/15 07:55:42;;;;;;;6.07;5.57;;;16.90;99.90;;;;;;5070663;28;20198;-86
2022/09/15 07:58:08;;;;;;;6.73;5.80;;;16.80;99.90;;;;;;5074224;28;20194;-86
2022/09/15 08:00:35;;;;;;;5.83;5.33;;;16.70;99.90;;;;;;5076872;28;20194;-86
2022/09/15 08:03:00;;;;;;;7.33;5.80;;;16.60;99.90;;;;;;5073242;28;20220;-86
2022/09/15 08:05:27;;;;;;;7.20;5.07;;;16.60;99.90;;;;;;5079805;28;20217;-85
2022/09/15 08:07:54;;;;;;;5.13;4.63;;;16.50;99.90;;;;;;5076169;28;20207;-85
2022/09/15 08:10:21;;;;;;;5.00;4.50;;;16.40;99.90;;;;;;5070222;28;20188;-86
2022/09/15 08:12:48;;;;;;;4.90;4.50;;;16.40;99.90;;;;;;5064072;28;20199;-85
2022/09/15 08:15:14;;;;;;;5.20;4.70;;;16.40;99.90;;;;;;5078333;28;20212;-85
2022/09/15 08:17:40;;;;;;;4.97;4.47;;;16.30;99.90;;;;;;5080772;28;20215;-87
2022/09/15 08:20:06;;;;;;;4.87;4.47;;;16.30;99.90;;;;;;5073775;28;20190;-88
2022/09/15 08:22:32;;;;;;;5.03;4.50;;;16.40;99.90;;;;;;5077791;28;20187;-89
2022/09/15 08:24:58;;;;;;;5.93;4.57;;;16.50;99.90;;;;;;5064649;28;20289;-88
2022/09/15 08:27:24;;;;;;;6.87;4.57;;;16.50;99.90;;;;;;5060857;28;20608;-88
2022/09/15 08:29:50;;;;;;;5.10;4.70;;;16.50;99.90;;;;;;5073591;28;20195;-87
2022/09/15 08:32:16;;;;;;;5.17;4.73;;;16.50;99.90;;;;;;5076635;28;20249;-88
2022/09/15 08:34:41;;;;;;;4.95;4.45;;;16.50;99.90;;;;;;5080085;28;20191;-88
2022/09/15 08:37:07;;;;;;;5.00;4.60;;;16.60;99.90;;;;;;5084928;28;20220;-88
2022/09/15 08:39:33;;;;;;;5.50;5.00;;;16.80;99.90;;;;;;5080673;28;20204;-86
2022/09/15 08:42:00;;;;;;;5.70;5.20;;;16.80;99.90;;;;;;5082518;28;20198;-88
2022/09/15 08:44:35;;;;;;;6.20;5.05;;;16.90;99.90;;;;;;5078303;28;20210;-88
2022/09/15 08:47:13;;;;;;;5.10;4.60;;;16.90;99.90;;;;;;5077792;28;20237;-86
2022/09/15 08:50:06;;;;;;;7.22;5.25;;;16.90;99.90;;;;;;5070476;28;20270;-86
2022/09/15 08:52:43;;;;;;;5.68;5.18;;;17.00;99.90;;;;;;5069425;28;20237;-85
2022/09/15 08:55:43;;;;;;;5.38;4.90;;;17.00;99.90;;;;;;5075397;28;20190;-88
2022/09/15 08:58:30;;;;;;;5.82;5.25;;;17.00;99.90;;;;;;5076345;28;20721;-88
2022/09/15 09:01:16;;;;;;;5.68;5.18;;;17.00;99.90;;;;;;5084484;28;20251;-88
2022/09/15 09:03:48;;;;;;;5.82;5.43;;;16.90;99.90;;;;;;5075637;28;20191;-88
2022/09/15 09:06:35;;;;;;;5.93;5.43;;;17.00;99.90;;;;;;5069722;28;20586;-86
2022/09/15 09:09:31;;;;;;;5.60;5.07;;;16.80;99.90;;;;;;5071322;28;20245;-87
2022/09/15 09:12:09;;;;;;;5.70;5.20;;;16.90;99.90;;;;;;5070928;28;20193;-87
2022/09/15 09:14:47;;;;;;;6.22;5.03;;;16.80;99.90;;;;;;5074395;28;20189;-86
2022/09/15 09:17:12;;;;;;;5.63;5.20;;;16.90;99.90;;;;;;5074818;28;20303;-87
2022/09/15 09:19:53;;;;;;;5.43;4.95;;;16.90;99.90;;;;;;5074878;28;20631;-87
2022/09/15 09:22:30;;;;;;;5.25;4.82;;;16.90;99.90;;;;;;5068038;28;20179;-87
2022/09/15 09:24:58;;;;;;;5.70;5.20;;;16.90;99.90;;;;;;5067439;28;20218;-86
2022/09/15 09:27:33;;;;;;;5.75;5.25;;;17.00;99.90;;;;;;5071528;28;20206;-86
2022/09/15 09:30:09;;;;;;;5.45;4.95;;;16.90;99.90;;;;;;5077752;28;20214;-86
2022/09/15 09:32:45;;;;;;;7.80;5.00;;;16.80;99.90;;;;;;5078582;28;20215;-86
2022/09/15 09:35:42;;;;;;;5.93;5.20;;;16.60;99.90;;;;;;5074989;28;20205;-87
2022/09/15 09:38:09;;;;;;;5.70;4.43;;;16.60;99.90;;;;;;5079670;28;20198;-87
2022/09/15 09:40:40;;;;;;;6.07;4.63;;;16.50;99.90;;;;;;5080315;28;20277;-86
2022/09/15 09:43:07;;;;;;;6.00;4.60;;;16.30;99.90;;;;;;5080142;28;20187;-87
2022/09/15 09:45:33;;;;;;;5.43;4.40;;;16.30;99.90;;;;;;5076714;28;20574;-86
2022/09/15 09:48:03;;;;;;;5.47;3.90;;;16.30;99.90;;;;;;5071161;28;20208;-86
2022/09/15 09:50:43;;;;;;;5.40;4.27;;;16.30;99.90;;;;;;5076947;28;20204;-87
2022/09/15 09:53:30;;;;;;;4.90;4.37;;;16.40;99.90;;;;;;5075981;28;20247;-86
2022/09/15 09:56:14;;;;;;;5.47;3.90;;;16.60;99.90;;;;;;5077330;28;20198;-86
2022/09/15 09:58:40;;;;;;;4.80;4.40;;;16.70;99.90;;;;;;5080206;28;20197;-86
2022/09/15 10:01:15;;;;;;;4.50;4.10;;;16.80;99.90;;;;;;5080256;28;20273;-86
2022/09/15 10:03:42;;;;;;;5.10;4.18;;;16.90;99.90;;;;;;5075634;28;20190;-85
2022/09/15 10:06:21;;;;;;;5.10;4.70;;;16.80;99.90;;;;;;5073996;28;20225;-86
2022/09/15 10:09:04;;;;;;;4.55;4.15;;;16.80;99.90;;;;;;5070647;28;20195;-86
2022/09/15 10:11:57;;;;;;;4.78;4.22;;;16.80;99.90;;;;;;5070551;28;20185;-87
2022/09/15 10:14:34;;;;;;;5.10;4.60;;;16.90;99.90;;;;;;5072231;28;20195;-86
2022/09/15 10:17:11;;;;;;;4.25;3.90;;;16.90;99.90;;;;;;5069639;28;20246;-86
2022/09/15 10:19:51;;;;;;;4.63;4.20;;;17.00;99.90;;;;;;5072725;28;20802;-87
2022/09/15 10:22:26;;;;;;;5.15;4.20;;;17.10;99.90;;;;;;5063882;28;20191;-86
2022/09/15 10:24:52;;;;;;;5.63;4.47;;;17.20;99.90;;;;;;5067246;28;20210;-85
2022/09/15 10:27:30;;;;;;;5.30;4.35;;;17.10;99.90;;;;;;5050752;28;20283;-86
2022/09/15 10:30:18;;;;;;;11.68;9.93;;;17.20;99.90;;;;;;5078588;28;20254;-85
2022/09/15 10:32:44;;;;;;;4.88;4.32;;;17.30;99.90;;;;;;5092166;28;20227;-86
2022/09/15 10:35:17;;;;;;;4.72;4.28;;;17.30;99.90;;;;;;5081578;28;20168;-84
2022/09/15 10:38:02;;;;;;;4.70;4.30;;;17.40;99.90;;;;;;5085709;28;20242;-86
2022/09/15 10:40:53;;;;;;;4.95;4.32;;;17.30;99.90;;;;;;5081703;28;20167;-86
2022/09/15 10:43:37;;;;;;;4.40;3.95;;;17.40;99.90;;;;;;5060346;28;20263;-88
2022/09/15 10:46:18;;;;;;;4.88;4.47;;;17.40;99.90;;;;;;5066278;28;20200;-85
2022/09/15 10:49:04;;;;;;;5.07;4.57;;;17.50;99.90;;;;;;5081739;28;20232;-87
2022/09/15 10:51:47;;;;;;;4.55;4.15;;;17.70;99.90;;;;;;5082905;28;20189;-86
2022/09/15 10:54:46;;;;;;;5.85;5.35;;;17.80;99.90;;;;;;5080319;28;20210;-86
2022/09/15 10:57:39;;;;;;;6.05;5.53;;;17.90;99.90;;;;;;5081468;28;20211;-87
2022/09/15 11:00:09;;;;;;;6.18;5.60;;;17.80;99.90;;;;;;5082248;28;20194;-87
2022/09/15 11:03:11;;;;;;;6.20;5.60;;;17.80;99.90;;;;;;5080698;28;20205;-86
2022/09/15 11:06:01;;;;;;;6.53;5.68;;;17.70;99.90;;;;;;5082758;28;20206;-87
2022/09/15 11:09:00;;;;;;;6.55;6.05;;;17.80;99.90;;;;;;5083331;28;20179;-87
2022/09/15 11:11:44;;;;;;;7.60;6.90;;;17.50;99.90;;;;;;5088240;28;20179;-86
2022/09/15 11:14:28;;;;;;;9.35;6.55;;;17.30;99.90;;;;;;5078783;28;20255;-86
2022/09/15 11:17:26;;;;;;;8.60;7.40;;;17.20;99.90;;;;;;5086764;28;20210;-87
2022/09/15 11:20:16;;;;;;;6.95;6.35;;;17.20;99.90;;;;;;5038631;28;20206;-86
2022/09/15 11:22:59;;;;;;;7.10;6.50;;;17.30;99.90;;;;;;5078625;28;20213;-86
2022/09/15 11:25:30;;;;;;;7.47;6.53;;;17.50;99.90;;;;;;5077361;28;20202;-85
2022/09/15 11:28:15;;;;;;;7.40;6.70;;;17.80;99.90;;;;;;5077956;28;20203;-87
2022/09/15 11:31:05;;;;;;;7.35;6.65;;;17.90;99.90;;;;;;5082246;28;20206;-86
2022/09/15 11:33:41;;;;;;;7.63;6.97;;;17.90;99.90;;;;;;5081324;28;20206;-86
2022/09/15 11:36:19;;;;;;;8.00;7.20;;;18.00;99.90;;;;;;5077244;28;20211;-86
2022/09/15 11:38:58;;;;;;;7.03;6.43;;;18.00;99.90;;;;;;5076600;28;20702;-87
2022/09/15 11:41:33;;;;;;;7.07;6.45;;;17.90;99.90;;;;;;5078278;28;20175;-85
2022/09/15 11:44:09;;;;;;;7.60;7.00;;;18.00;99.90;;;;;;5077108;28;20213;-85
2022/09/15 11:47:03;;;;;;;7.25;6.63;;;17.90;99.90;;;;;;5077602;28;20217;-85
2022/09/15 11:49:44;;;;;;;8.05;7.25;;;17.90;99.90;;;;;;5079669;28;20187;-86
2022/09/15 11:52:28;;;;;;;8.05;7.00;;;18.10;99.90;;;;;;5094395;28;20213;-84
2022/09/15 11:55:34;;;;;;;7.50;6.88;;;18.20;99.90;;;;;;5092050;28;20183;-85
2022/09/15 11:58:18;;;;;;;7.88;7.07;;;18.50;99.90;;;;;;5090069;28;20246;-86
2022/09/15 12:00:59;;;;;;;7.88;7.20;;;18.60;99.90;;;;;;5095878;28;20186;-86
2022/09/15 12:03:34;;;;;;;8.15;7.35;;;18.80;99.90;;;;;;5086020;28;20179;-84
2022/09/15 12:06:15;;;;;;;8.10;7.28;;;19.00;99.90;;;;;;5082229;28;20206;-85
2022/09/15 12:08:57;;;;;;;9.95;7.03;;;19.10;99.90;;;;;;5088937;28;20555;-87
2022/09/15 12:11:29;;;;;;;7.85;7.07;;;19.40;99.50;;;;;;5089014;28;20200;-86
2022/09/15 12:13:56;;;;;;;6.68;6.05;;;19.70;99.40;;;;;;5087356;28;20187;-86
2022/09/15 12:16:23;;;;;;;6.95;6.28;;;20.10;99.90;;;;;;5084174;28;20286;-86
2022/09/15 12:19:03;;;;;;;7.78;7.15;;;20.10;98.50;;;;;;5087055;28;20189;-86
2022/09/15 12:21:54;;;;;;;6.55;5.95;;;20.00;92.70;;;;;;5087683;28;20260;-86
2022/09/15 12:24:55;;;;;;;7.72;7.05;;;20.00;98.90;;;;;;5087188;28;20290;-87
2022/09/15 12:27:21;;;;;;;6.47;5.97;;;19.50;99.90;;;;;;5085022;28;20198;-86
2022/09/15 12:29:58;;;;;;;6.32;5.75;;;19.40;99.10;;;;;;5076565;28;20195;-86
2022/09/15 12:32:26;;;;;;;6.75;6.20;;;19.90;96.90;;;;;;5083487;28;20297;-85
2022/09/15 12:35:24;;;;;;;6.07;5.47;;;20.60;93.90;;;;;;5084531;28;20250;-87
2022/09/15 12:37:56;;;;;;;6.18;5.57;;;21.00;91.40;;;;;;5080587;28;20249;-87
2022/09/15 12:40:25;;;;;;;6.45;5.32;;;20.60;92.60;;;;;;5081880;28;20272;-86
2022/09/15 12:42:51;;;;;;;6.32;5.82;;;20.60;94.70;;;;;;5082950;28;20250;-87
2022/09/15 12:45:27;;;;;;;7.05;5.60;;;21.10;92.90;;;;;;5069542;28;20378;-87
2022/09/15 12:48:00;;;;;;;5.88;5.20;;;21.40;90.70;;;;;;5085651;28;20207;-88
2022/09/15 12:50:36;;;;;;;5.85;5.35;;;21.80;86.20;;;;;;5082773;28;20207;-86
2022/09/15 12:53:20;;;;;;;6.45;5.75;;;21.90;85.50;;;;;;5076040;28;20180;-85
2022/09/15 12:56:07;;;;;;;6.22;5.38;;;21.40;87.40;;;;;;5090264;28;20187;-86
2022/09/15 12:58:40;;;;;;;5.22;4.82;;;22.00;88.10;;;;;;5089444;28;20277;-86
2022/09/15 13:01:25;;;;;;;5.38;4.88;;;22.30;80.20;;;;;;5083834;28;20183;-86
2022/09/15 13:03:54;;;;;;;5.43;5.03;;;22.80;81.10;;;;;;5076007;28;20182;-87
2022/09/15 13:06:22;;;;;;;5.43;4.75;;;22.90;79.50;;;;;;5080113;28;20207;-89
2022/09/15 13:09:04;;;;;;;4.80;4.40;;;22.90;79.90;;;;;;5078957;28;20190;-88
2022/09/15 13:11:35;;;;;;;4.78;4.38;;;23.00;76.70;;;;;;5085771;28;20796;-90
2022/09/15 13:14:06;;;;;;;5.90;4.43;;;23.30;75.20;;;;;;5083308;28;20180;-90
2022/09/15 13:16:59;;;;;;;6.13;4.50;;;23.30;73.50;;;;;;5083905;28;20242;-89